Somerville, New Jersey
Current Conditions -  °F | °C
As of 10:53 PM on Saturday 25 Oct 2014 (Local Time) from KSMQ Reporting Station
Broken Clouds Broken Clouds  
Wind Chill: 57°   Ceiling: 10000
Heat Index: 57°   Visibility: 10mi
Dew Point: 45°   Wind: 3mph
Humidity: 64%   Direction: NA
Pressure: 29.59"   Gusts: NA
Location:  40.57°N, 74.62°W
Report Text: KSMQ 260253Z AUTO VRB03KT 10SM BKN100 14/07 A2959 RMK AO2 SLP019 T01390072 58016
Loading
Personal Weather Stations






























Interactive Weather Map
Tropical Storm Tracking
New forecast layout! Learn more

10-Day Weather Forecast

Advertisements
Track Severe Weather on mobile